createdAt,value
2022-11-16T00:01:58.996Z,12.35
2022-11-16T00:04:26.783Z,12.68
2022-11-16T00:06:53.469Z,12.30
2022-11-16T00:09:19.953Z,12.69
2022-11-16T00:11:48.334Z,12.10
2022-11-16T00:14:14.774Z,12.22
2022-11-16T00:16:41.182Z,12.34
2022-11-16T00:19:08.046Z,12.31
2022-11-16T00:21:35.829Z,12.48
2022-11-16T00:24:02.720Z,12.54
2022-11-16T00:26:29.481Z,12.40
2022-11-16T00:28:56.285Z,12.49
2022-11-16T00:31:23.223Z,12.67
2022-11-16T00:33:50.424Z,12.27
2022-11-16T00:36:17.289Z,12.41
2022-11-16T00:38:45.059Z,12.38
2022-11-16T00:41:11.477Z,12.49
2022-11-16T00:43:37.908Z,12.19
2022-11-16T00:46:04.597Z,12.36
2022-11-16T00:48:31.716Z,12.12
2022-11-16T00:50:58.457Z,12.20
2022-11-16T00:53:24.858Z,12.13
2022-11-16T00:55:52.634Z,12.25
2022-11-16T00:58:19.053Z,12.10
2022-11-16T01:00:45.884Z,12.08
2022-11-16T01:03:12.344Z,12.25
2022-11-16T01:05:38.892Z,12.20
2022-11-16T01:08:06.039Z,12.13
2022-11-16T01:10:32.500Z,12.18
2022-11-16T01:13:00.322Z,11.98
2022-11-16T01:15:27.855Z,12.16
2022-11-16T01:17:55.643Z,12.37
2022-11-16T01:20:24.506Z,12.61
2022-11-16T01:22:51.504Z,12.08
2022-11-16T01:25:18.345Z,11.76
2022-11-16T01:27:44.850Z,12.24
2022-11-16T01:30:14.562Z,11.79
2022-11-16T01:32:41.054Z,11.89
2022-11-16T01:35:08.553Z,11.97
2022-11-16T01:37:35.007Z,12.40
2022-11-16T01:40:01.435Z,12.29
2022-11-16T01:42:29.911Z,12.38
2022-11-16T01:44:59.879Z,12.01
2022-11-16T01:47:28.467Z,12.29
2022-11-16T01:49:58.392Z,12.06
2022-11-16T01:52:28.654Z,12.06
2022-11-16T01:54:55.360Z,12.27
2022-11-16T01:57:25.733Z,12.78
2022-11-16T01:59:55.495Z,12.22
2022-11-16T02:02:22.006Z,11.98
2022-11-16T02:04:52.590Z,12.07
2022-11-16T02:07:30.532Z,11.83
2022-11-16T02:10:10.433Z,12.10
2022-11-16T02:13:06.024Z,12.02
2022-11-16T02:15:40.313Z,11.85
2022-11-16T02:18:22.373Z,11.94
2022-11-16T02:21:14.266Z,12.05
2022-11-16T02:24:07.263Z,11.76
2022-11-16T02:26:53.186Z,11.93
2022-11-16T02:29:24.333Z,12.21
2022-11-16T02:31:56.817Z,11.74
2022-11-16T02:34:28.174Z,11.88
2022-11-16T02:36:56.373Z,12.02
2022-11-16T02:39:27.154Z,11.98
2022-11-16T02:41:57.310Z,11.72
2022-11-16T02:44:30.069Z,11.57
2022-11-16T02:46:59.977Z,11.84
2022-11-16T02:49:29.443Z,11.73
2022-11-16T02:51:57.484Z,11.50
2022-11-16T02:54:23.904Z,11.84
2022-11-16T02:56:55.297Z,11.82
2022-11-16T02:59:24.014Z,12.03
2022-11-16T03:02:01.674Z,11.69
2022-11-16T03:04:32.460Z,11.65
2022-11-16T03:07:02.708Z,11.78
2022-11-16T03:09:32.877Z,11.75
2022-11-16T03:12:02.734Z,11.93
2022-11-16T03:14:34.215Z,12.15
2022-11-16T03:17:03.754Z,11.90
2022-11-16T03:19:37.142Z,11.39
2022-11-16T03:22:10.294Z,12.26
2022-11-16T03:24:37.250Z,11.93
2022-11-16T03:27:09.937Z,12.15
2022-11-16T03:29:41.659Z,11.75
2022-11-16T03:32:14.146Z,12.28
2022-11-16T03:34:44.935Z,12.31
2022-11-16T03:37:12.596Z,11.92
2022-11-16T03:39:39.898Z,11.83
2022-11-16T03:42:10.937Z,11.40
2022-11-16T03:44:38.691Z,11.45
2022-11-16T03:47:05.217Z,11.27
2022-11-16T03:49:33.254Z,11.13
2022-11-16T03:51:59.745Z,10.83
2022-11-16T03:54:26.251Z,10.91
2022-11-16T03:56:52.658Z,11.12
2022-11-16T03:59:19.053Z,11.15
2022-11-16T04:01:45.429Z,10.72
2022-11-16T04:04:12.002Z,10.92
2022-11-16T04:06:39.793Z,10.73
2022-11-16T04:09:06.191Z,10.57
2022-11-16T04:11:32.795Z,10.73
2022-11-16T04:13:59.638Z,10.71
2022-11-16T04:16:26.042Z,11.22
2022-11-16T04:18:52.497Z,11.40
2022-11-16T04:21:22.110Z,11.02
2022-11-16T04:23:50.007Z,10.88
2022-11-16T04:26:16.657Z,10.90
2022-11-16T04:28:43.203Z,10.69
2022-11-16T04:31:09.737Z,10.67
2022-11-16T04:33:36.450Z,10.76
2022-11-16T04:36:03.001Z,10.66
2022-11-16T04:38:29.438Z,10.41
2022-11-16T04:40:57.154Z,10.31
2022-11-16T04:43:23.555Z,10.53
2022-11-16T04:45:49.951Z,10.35
2022-11-16T04:48:18.342Z,10.12
2022-11-16T04:50:46.038Z,10.46
2022-11-16T04:53:13.210Z,10.44
2022-11-16T04:55:39.776Z,10.35
2022-11-16T04:58:07.511Z,10.29
2022-11-16T05:00:34.039Z,10.21
2022-11-16T05:03:01.807Z,10.34
2022-11-16T05:05:28.665Z,10.37
2022-11-16T05:07:55.500Z,10.45
2022-11-16T05:10:22.123Z,10.35
2022-11-16T05:12:48.699Z,10.56
2022-11-16T05:15:16.860Z,10.17
2022-11-16T05:17:43.451Z,10.18
2022-11-16T05:20:10.796Z,10.31
2022-11-16T05:22:37.491Z,9.94
2022-11-16T05:25:04.856Z,10.20
2022-11-16T05:27:31.512Z,10.07
2022-11-16T05:29:58.771Z,9.74
2022-11-16T05:32:27.796Z,9.93
2022-11-16T05:34:54.414Z,9.88
2022-11-16T05:37:21.113Z,9.81
2022-11-16T05:39:47.784Z,9.95
2022-11-16T05:42:14.200Z,9.60
2022-11-16T05:44:40.666Z,9.69
2022-11-16T05:47:07.097Z,9.82
2022-11-16T05:49:34.843Z,9.72
2022-11-16T05:52:01.331Z,9.75
2022-11-16T05:54:27.748Z,9.63
2022-11-16T05:56:54.692Z,9.71
2022-11-16T05:59:22.677Z,9.59
2022-11-16T06:01:50.118Z,9.58
2022-11-16T06:06:59.209Z,9.66
2022-11-16T06:09:25.688Z,9.23
2022-11-16T06:11:52.092Z,9.43
2022-11-16T06:14:18.690Z,9.27
2022-11-16T06:16:45.140Z,9.34
2022-11-16T06:19:11.739Z,8.96
2022-11-16T06:21:38.329Z,9.22
2022-11-16T06:24:06.585Z,9.09
2022-11-16T06:26:32.973Z,9.25
2022-11-16T06:28:59.654Z,9.14
2022-11-16T06:31:26.137Z,9.21
2022-11-16T06:33:52.526Z,9.16
2022-11-16T06:36:18.985Z,9.19
2022-11-16T06:38:45.369Z,8.97
2022-11-16T06:41:13.126Z,8.73
2022-11-16T06:43:39.557Z,9.22
2022-11-16T06:46:05.966Z,9.02
2022-11-16T06:48:32.621Z,9.04
2022-11-16T06:50:59.230Z,8.91
2022-11-16T06:53:29.166Z,8.85
2022-11-16T06:56:00.994Z,8.67
2022-11-16T06:58:30.042Z,8.73
2022-11-16T07:00:56.523Z,8.74
2022-11-16T07:03:23.097Z,8.50
2022-11-16T07:05:49.616Z,8.60
2022-11-16T07:08:16.022Z,8.87
2022-11-16T07:10:42.434Z,8.72
2022-11-16T07:13:08.823Z,8.67
2022-11-16T07:15:36.562Z,8.53
2022-11-16T07:18:05.132Z,8.22
2022-11-16T07:20:31.753Z,8.38
2022-11-16T07:22:59.843Z,8.36
2022-11-16T07:25:26.458Z,8.39
2022-11-16T07:27:52.888Z,8.05
2022-11-16T07:30:20.171Z,8.28
2022-11-16T07:32:47.908Z,8.06
2022-11-16T07:35:14.376Z,8.24
2022-11-16T07:37:40.782Z,7.94
2022-11-16T07:40:08.686Z,8.10
2022-11-16T07:42:35.377Z,8.01
2022-11-16T07:45:01.841Z,8.11
2022-11-16T07:47:28.273Z,8.14
2022-11-16T07:49:56.025Z,7.63
2022-11-16T07:52:22.406Z,7.62
2022-11-16T07:54:48.802Z,7.87
2022-11-16T07:57:15.239Z,7.88
2022-11-16T07:59:41.633Z,8.04
2022-11-16T08:02:09.354Z,7.75
2022-11-16T08:04:35.789Z,7.84
2022-11-16T08:07:03.581Z,7.79
2022-11-16T08:09:30.090Z,7.82
2022-11-16T08:11:56.487Z,7.79
2022-11-16T08:14:22.901Z,7.73
2022-11-16T08:16:49.314Z,8.05
2022-11-16T08:19:15.704Z,8.19
2022-11-16T08:21:42.115Z,8.14
2022-11-16T08:24:10.418Z,8.13
2022-11-16T08:26:36.865Z,8.36
2022-11-16T08:29:03.376Z,8.74
2022-11-16T08:31:30.028Z,8.44
2022-11-16T08:33:56.578Z,8.44
2022-11-16T08:36:23.600Z,8.83
2022-11-16T08:38:51.088Z,8.32
2022-11-16T08:41:19.832Z,8.06
2022-11-16T08:43:46.758Z,8.30
2022-11-16T08:46:13.529Z,8.24
2022-11-16T08:48:39.956Z,8.20
2022-11-16T08:51:17.434Z,8.32
2022-11-16T08:53:45.555Z,8.89
2022-11-16T08:56:12.247Z,8.63
2022-11-16T08:58:41.531Z,8.39
2022-11-16T09:01:09.423Z,8.39
2022-11-16T09:03:36.494Z,8.21
2022-11-16T09:06:02.902Z,7.89
2022-11-16T09:08:29.364Z,8.25
2022-11-16T09:10:55.800Z,8.20
2022-11-16T09:13:22.196Z,8.49
2022-11-16T09:15:56.025Z,8.29
2022-11-16T09:18:22.319Z,7.91
2022-11-16T09:20:48.723Z,8.26
2022-11-16T09:23:15.227Z,8.13
2022-11-16T09:25:41.972Z,8.18
2022-11-16T09:28:08.381Z,7.93
2022-11-16T09:30:34.969Z,7.82
2022-11-16T09:33:02.781Z,7.83
2022-11-16T09:35:29.187Z,7.94
2022-11-16T09:37:55.648Z,7.88
2022-11-16T09:40:22.305Z,7.88
2022-11-16T09:42:59.322Z,8.23
2022-11-16T09:45:33.091Z,8.26
2022-11-16T09:48:01.110Z,8.25
2022-11-16T09:50:41.722Z,8.06
2022-11-16T09:53:22.534Z,7.92
2022-11-16T09:55:51.883Z,7.99
2022-11-16T09:58:23.173Z,8.10
2022-11-16T10:00:56.007Z,8.06
2022-11-16T10:03:25.139Z,8.03
2022-11-16T10:05:59.727Z,7.83
2022-11-16T10:08:36.001Z,7.67
2022-11-16T10:11:22.076Z,8.18
2022-11-16T10:14:03.988Z,7.95
2022-11-16T10:16:38.110Z,8.18
2022-11-16T10:19:14.751Z,7.90
2022-11-16T10:21:51.220Z,8.25
2022-11-16T10:24:50.240Z,8.16
2022-11-16T10:27:38.432Z,8.39
2022-11-16T10:30:10.245Z,8.43
2022-11-16T10:32:43.922Z,8.10
2022-11-16T10:35:16.975Z,8.47
2022-11-16T10:37:48.116Z,8.12
2022-11-16T10:40:19.760Z,7.49
2022-11-16T10:42:53.847Z,8.17
2022-11-16T10:45:25.338Z,7.96
2022-11-16T10:47:58.017Z,7.75
2022-11-16T10:50:33.000Z,7.83
2022-11-16T10:53:00.951Z,7.98
2022-11-16T10:55:27.775Z,8.11
2022-11-16T10:57:56.646Z,8.42
2022-11-16T11:00:34.830Z,8.62
2022-11-16T11:03:01.409Z,7.84
2022-11-16T11:05:27.911Z,8.06
2022-11-16T11:08:02.536Z,8.51
2022-11-16T11:10:31.299Z,7.69
2022-11-16T11:13:03.118Z,8.03
2022-11-16T11:15:29.554Z,7.89
2022-11-16T11:18:25.392Z,7.87
2022-11-16T11:21:04.115Z,8.22
2022-11-16T11:23:40.220Z,8.18
2022-11-16T11:26:10.440Z,8.02
2022-11-16T11:28:38.347Z,8.12
2022-11-16T11:31:09.170Z,8.00
2022-11-16T11:33:38.874Z,8.48
2022-11-16T11:36:10.799Z,8.51
2022-11-16T11:38:56.113Z,8.17
2022-11-16T11:41:23.027Z,8.36
2022-11-16T11:44:01.243Z,8.08
2022-11-16T11:46:56.041Z,8.24
2022-11-16T11:49:23.602Z,8.22
2022-11-16T11:51:52.022Z,8.63
2022-11-16T11:54:23.837Z,8.24
2022-11-16T11:56:50.520Z,8.18
2022-11-16T11:59:20.701Z,8.50
2022-11-16T12:02:07.188Z,8.13
2022-11-16T12:04:56.612Z,7.87
2022-11-16T12:07:36.906Z,7.92
2022-11-16T12:10:15.577Z,7.72
2022-11-16T12:12:53.842Z,7.91
2022-11-16T12:15:33.189Z,8.03
2022-11-16T12:18:14.494Z,7.75
2022-11-16T12:20:49.928Z,7.88
2022-11-16T12:23:47.574Z,7.96
2022-11-16T12:26:26.018Z,8.05
2022-11-16T12:29:04.281Z,7.92
2022-11-16T12:31:51.094Z,8.13
2022-11-16T12:34:29.640Z,7.67
2022-11-16T12:37:04.177Z,8.08
2022-11-16T12:39:34.631Z,7.71
2022-11-16T12:42:31.322Z,7.84
2022-11-16T12:45:13.481Z,8.08
2022-11-16T12:47:54.780Z,8.23
2022-11-16T12:50:38.380Z,8.26
2022-11-16T12:53:18.245Z,7.94
2022-11-16T12:55:51.974Z,8.42
2022-11-16T12:58:26.594Z,7.94
2022-11-16T13:01:02.816Z,8.36
2022-11-16T13:03:36.120Z,8.57
2022-11-16T13:06:06.470Z,8.14
2022-11-16T13:08:46.833Z,7.80
2022-11-16T13:11:18.558Z,7.89
2022-11-16T13:13:53.458Z,7.72
2022-11-16T13:16:21.712Z,7.94
2022-11-16T13:18:48.420Z,7.99
2022-11-16T13:21:31.120Z,7.78
2022-11-16T13:24:12.901Z,7.99
2022-11-16T13:26:46.962Z,7.71
2022-11-16T13:29:24.417Z,7.85
2022-11-16T13:31:58.436Z,7.81
2022-11-16T13:34:27.044Z,7.70
2022-11-16T13:36:53.440Z,7.91
2022-11-16T13:39:22.938Z,7.91
2022-11-16T13:41:51.313Z,7.77
2022-11-16T13:44:29.606Z,7.92
2022-11-16T13:46:59.547Z,7.71
2022-11-16T13:49:30.869Z,7.72
2022-11-16T13:52:16.836Z,8.07
2022-11-16T13:54:49.341Z,8.15
2022-11-16T13:57:23.939Z,7.86
2022-11-16T14:00:10.500Z,7.80
2022-11-16T14:02:38.853Z,8.09
2022-11-16T14:05:14.713Z,8.27
2022-11-16T14:07:42.780Z,7.86
2022-11-16T14:10:11.236Z,7.72
2022-11-16T14:12:55.572Z,10.57
2022-11-16T14:15:26.386Z,10.00
2022-11-16T14:17:59.283Z,9.41
2022-11-16T14:20:35.292Z,8.49
2022-11-16T14:23:14.008Z,8.23
2022-11-16T14:25:44.763Z,7.85
2022-11-16T14:28:38.131Z,7.96
2022-11-16T14:31:15.226Z,7.96
2022-11-16T14:33:42.016Z,8.31
2022-11-16T14:36:10.174Z,7.92
2022-11-16T14:38:38.505Z,7.76
2022-11-16T14:41:07.114Z,7.88
2022-11-16T14:43:39.890Z,7.99
2022-11-16T14:46:13.815Z,7.89
2022-11-16T14:48:43.971Z,8.09
2022-11-16T14:51:13.896Z,7.95
2022-11-16T14:53:45.390Z,7.84
2022-11-16T14:56:13.555Z,7.78
2022-11-16T14:58:40.175Z,8.01
2022-11-16T15:01:14.305Z,8.39
2022-11-16T15:03:50.112Z,7.98
2022-11-16T15:06:16.609Z,8.26
2022-11-16T15:08:46.993Z,8.12
2022-11-16T15:11:23.054Z,8.17
2022-11-16T15:13:50.176Z,8.43
2022-11-16T15:16:19.801Z,8.37
2022-11-16T15:18:56.765Z,8.18
2022-11-16T15:21:24.001Z,8.34
2022-11-16T15:24:15.535Z,8.51
2022-11-16T15:26:38.303Z,8.12
2022-11-16T15:29:04.763Z,8.23
2022-11-16T15:31:34.261Z,8.30
2022-11-16T15:34:01.523Z,8.22
2022-11-16T15:36:33.023Z,8.03
2022-11-16T15:39:02.253Z,8.29
2022-11-16T15:41:29.005Z,8.67
2022-11-16T15:44:15.055Z,8.27
2022-11-16T15:46:46.875Z,8.10
2022-11-16T15:49:24.825Z,8.06
2022-11-16T15:51:51.295Z,7.93
2022-11-16T15:54:24.100Z,8.32
2022-11-16T15:56:53.553Z,8.25
2022-11-16T15:59:24.864Z,8.16
2022-11-16T16:01:52.812Z,8.85
2022-11-16T16:04:19.461Z,9.10
2022-11-16T16:06:48.316Z,8.71
2022-11-16T16:09:24.070Z,8.74
2022-11-16T16:11:51.093Z,8.68
2022-11-16T16:14:28.655Z,9.01
2022-11-16T16:16:57.486Z,8.73
2022-11-16T16:19:43.046Z,8.83
2022-11-16T16:22:14.220Z,8.09
2022-11-16T16:24:42.873Z,8.17
2022-11-16T16:27:17.439Z,8.33
2022-11-16T16:29:44.539Z,8.09
2022-11-16T16:32:17.898Z,7.70
2022-11-16T16:34:44.276Z,7.75
2022-11-16T16:37:11.384Z,7.74
2022-11-16T16:39:38.118Z,7.62
2022-11-16T16:42:05.985Z,7.70
2022-11-16T16:44:32.397Z,7.67
2022-11-16T16:46:59.167Z,7.47
2022-11-16T16:49:26.881Z,7.37
2022-11-16T16:51:53.273Z,7.47
2022-11-16T16:54:19.693Z,7.56
2022-11-16T16:56:46.096Z,7.38
2022-11-16T16:59:13.443Z,7.32
2022-11-16T17:01:40.575Z,7.80
2022-11-16T17:04:07.239Z,7.44
2022-11-16T17:06:34.990Z,7.74
2022-11-16T17:09:01.481Z,7.58
2022-11-16T17:11:27.917Z,7.61
2022-11-16T17:13:54.915Z,7.47
2022-11-16T17:16:21.406Z,7.56
2022-11-16T17:18:47.845Z,7.54
2022-11-16T17:21:14.582Z,7.94
2022-11-16T17:23:42.338Z,7.96
2022-11-16T17:26:09.202Z,8.03
2022-11-16T17:28:35.629Z,7.99
2022-11-16T17:31:02.615Z,7.93
2022-11-16T17:33:33.327Z,7.85
2022-11-16T17:36:00.022Z,8.00
2022-11-16T17:38:26.444Z,7.84
2022-11-16T17:41:02.772Z,7.50
2022-11-16T17:43:29.448Z,7.31
2022-11-16T17:46:02.251Z,7.33
2022-11-16T17:48:28.634Z,7.29
2022-11-16T17:50:55.254Z,7.42
2022-11-16T17:53:21.650Z,7.32
2022-11-16T17:55:48.064Z,7.35
2022-11-16T17:58:15.823Z,7.36
2022-11-16T18:00:42.231Z,7.25
2022-11-16T18:03:08.627Z,7.19
2022-11-16T18:05:35.064Z,7.05
2022-11-16T18:08:01.471Z,7.28
2022-11-16T18:10:27.888Z,7.48
2022-11-16T18:12:54.304Z,7.69
2022-11-16T18:15:28.455Z,8.02
2022-11-16T18:17:55.805Z,7.77
2022-11-16T18:20:22.217Z,7.73
2022-11-16T18:22:48.661Z,7.67
2022-11-16T18:25:15.676Z,7.52
2022-11-16T18:27:42.072Z,7.57
2022-11-16T18:30:10.026Z,7.43
2022-11-16T18:32:37.801Z,7.38
2022-11-16T18:35:04.926Z,7.32
2022-11-16T18:37:31.327Z,7.27
2022-11-16T18:39:57.738Z,7.18
2022-11-16T18:42:24.131Z,7.52
2022-11-16T18:44:50.682Z,7.64
2022-11-16T18:47:17.291Z,7.57
2022-11-16T18:49:45.014Z,7.66
2022-11-16T18:52:11.394Z,7.14
2022-11-16T18:54:37.967Z,7.23
2022-11-16T18:57:04.568Z,7.18
2022-11-16T18:59:31.199Z,7.21
2022-11-16T19:01:57.728Z,7.12
2022-11-16T19:04:24.264Z,7.32
2022-11-16T19:06:52.114Z,7.37
2022-11-16T19:09:18.565Z,7.31
2022-11-16T19:11:44.941Z,7.39
2022-11-16T19:14:11.450Z,7.24
2022-11-16T19:16:41.859Z,7.56
2022-11-16T19:19:11.583Z,7.46
2022-11-16T19:21:37.962Z,7.27
2022-11-16T19:24:07.086Z,7.37
2022-11-16T19:26:33.492Z,7.31
2022-11-16T19:29:00.032Z,7.18
2022-11-16T19:31:28.561Z,7.12
2022-11-16T19:33:56.070Z,7.42
2022-11-16T19:36:23.118Z,7.27
2022-11-16T19:38:50.246Z,7.58
2022-11-16T19:41:19.035Z,7.35
2022-11-16T19:43:45.447Z,7.41
2022-11-16T19:46:13.848Z,7.47
2022-11-16T19:48:40.239Z,7.31
2022-11-16T19:51:07.896Z,7.41
2022-11-16T19:53:35.194Z,7.50
2022-11-16T19:56:01.962Z,7.22
2022-11-16T19:58:29.990Z,7.59
2022-11-16T20:01:00.747Z,7.29
2022-11-16T20:03:27.329Z,7.72
2022-11-16T20:05:53.815Z,7.38
2022-11-16T20:08:20.255Z,7.72
2022-11-16T20:10:46.647Z,7.85
2022-11-16T20:13:13.023Z,7.87
2022-11-16T20:15:40.971Z,7.81
2022-11-16T20:18:07.371Z,7.53
2022-11-16T20:20:33.809Z,7.76
2022-11-16T20:23:00.367Z,7.41
2022-11-16T20:25:26.787Z,7.62
2022-11-16T20:27:53.194Z,7.87
2022-11-16T20:30:20.587Z,7.40
2022-11-16T20:32:48.340Z,7.46
2022-11-16T20:35:18.952Z,7.44
2022-11-16T20:37:45.647Z,7.71
2022-11-16T20:40:12.453Z,7.21
2022-11-16T20:42:38.868Z,7.48
2022-11-16T20:45:07.032Z,7.32
2022-11-16T20:47:33.491Z,7.57
2022-11-16T20:50:01.245Z,7.41
2022-11-16T20:52:27.655Z,7.31
2022-11-16T20:54:54.047Z,7.16
2022-11-16T20:57:20.432Z,7.04
2022-11-16T20:59:47.368Z,7.47
2022-11-16T21:02:13.780Z,7.31
2022-11-16T21:04:40.322Z,7.22
2022-11-16T21:07:08.114Z,7.16
2022-11-16T21:09:34.614Z,7.23
2022-11-16T21:12:01.008Z,7.18
2022-11-16T21:14:27.660Z,7.43
2022-11-16T21:16:54.063Z,7.42
2022-11-16T21:19:20.701Z,7.41
2022-11-16T21:21:47.126Z,7.67
2022-11-16T21:24:14.857Z,7.03
2022-11-16T21:26:41.294Z,7.36
2022-11-16T21:29:07.981Z,7.00
2022-11-16T21:31:36.422Z,7.11
2022-11-16T21:34:03.325Z,7.17
2022-11-16T21:36:31.604Z,7.03
2022-11-16T21:38:58.421Z,7.04
2022-11-16T21:41:26.907Z,7.13
2022-11-16T21:43:53.496Z,7.15
2022-11-16T21:46:21.459Z,7.04
2022-11-16T21:48:48.417Z,7.42
2022-11-16T21:51:16.384Z,7.32
2022-11-16T21:53:43.104Z,7.41
2022-11-16T21:56:12.639Z,7.02
2022-11-16T21:58:41.190Z,7.07
2022-11-16T22:01:09.065Z,6.85
2022-11-16T22:03:36.159Z,6.97
2022-11-16T22:06:11.335Z,6.76
2022-11-16T22:08:38.450Z,6.90
2022-11-16T22:11:05.426Z,6.92
2022-11-16T22:13:31.958Z,6.82
2022-11-16T22:16:04.059Z,6.77
2022-11-16T22:18:30.970Z,6.91
2022-11-16T22:20:57.479Z,6.94
2022-11-16T22:23:23.915Z,7.05
2022-11-16T22:25:51.037Z,6.80
2022-11-16T22:28:21.511Z,6.84
2022-11-16T22:30:51.742Z,6.77
2022-11-16T22:33:20.036Z,7.00
2022-11-16T22:35:46.884Z,6.73
2022-11-16T22:38:13.292Z,6.65
2022-11-16T22:40:39.704Z,6.94
2022-11-16T22:43:06.090Z,7.04
2022-11-16T22:45:32.504Z,6.80
2022-11-16T22:47:58.911Z,6.61
2022-11-16T22:50:26.625Z,6.47
2022-11-16T22:52:53.018Z,6.57
2022-11-16T22:55:19.438Z,6.51
2022-11-16T22:57:45.854Z,6.69
2022-11-16T23:00:13.455Z,6.63
2022-11-16T23:02:40.024Z,6.53
2022-11-16T23:05:07.079Z,6.72
2022-11-16T23:07:34.908Z,6.58
2022-11-16T23:10:01.666Z,6.68
2022-11-16T23:12:28.051Z,6.70
2022-11-16T23:14:54.458Z,6.45
2022-11-16T23:17:20.866Z,6.49
2022-11-16T23:19:47.312Z,6.63
2022-11-16T23:22:15.360Z,6.48
2022-11-16T23:24:43.875Z,6.35
2022-11-16T23:27:10.346Z,6.73
2022-11-16T23:29:36.809Z,6.71
2022-11-16T23:32:03.453Z,6.52
2022-11-16T23:34:29.880Z,6.77
2022-11-16T23:37:01.816Z,6.56
2022-11-16T23:39:28.245Z,6.92
2022-11-16T23:41:56.055Z,6.79
2022-11-16T23:44:22.473Z,6.85
2022-11-16T23:46:48.892Z,6.51
2022-11-16T23:49:15.419Z,6.93
2022-11-16T23:51:41.817Z,6.59
2022-11-16T23:54:08.232Z,6.72
2022-11-16T23:56:34.641Z,6.53
2022-11-16T23:59:02.382Z,6.48
